Pagrindinis puslapis
METAR-TAF:

METAR-TAF

Oro uostai :

Trondheimas, Norvegija

platuma: 63-28N, ilguma: 010-56E, Aukštis: 1 m

Dabartinis oras

Ataskaita buvo paskelbta 29 minutes, ne 20:20 UTC
Vėjas 13 kt iš Vakarų/Šiaurės Vakarų
Temperatūra 11°C
Drėgmė 71%
Slėgis 998 hPa
Matomumas 10 km arba daugiau
Su prošvaistėmis ne aukštis 4500 ft

METAR: ENVA 062020Z 30013KT 9999 BKN045 11/06 Q0998 RMK WIND 670FT 31023KT

Laikas: 22:49 (20:49 UTC)

Prognozė

Prognozė galioja nuo 06 metu 18 UTC su 07 metu 18 UTC
Vėjas 12 kt iš Vakarų/Šiaurės Vakarų
Matomumas 10 km arba daugiau
Mažai debesys ne aukštis 2000 ft
Su prošvaistėmis ne aukštis 3500 ft
lietus
Laikinai
nuo 06 metu 18 UTC su 07 metu 12 UTC
Vėjas 22 kt iš Vakarų/Šiaurės Vakarų
Išsisklaidę debesys ne aukštis 1200 ft
Išsisklaidę debesys ne aukštis 2000 ft, Liūtiniai kamuoliniai debesys.
Su prošvaistėmis ne aukštis 2500 ft
lietus

TAF: ENVA 0618/0718 29012KT 9999 -SHRA FEW020 BKN035 TEMPO 0618/0712 29022KT SHRA SCT012 SCT020CB BKN025

Orai ataskaitas ir orų prognozės (METAR, TAF).

turimą stotys yra geltonos ir raudonos taškus žemėlapyje.

Perkelti pele per norėdami pamatyti stoties vardą.

Tada spustelėkite, norėdami matyti oro stebėjimo ir prognozės.

Norėdami pakeisti žemėlapį: spustelėkite ant žalios mygtukų su juodo kryžiaus žemyn,; žalią mygtuką su brūkšneliu, jei norite nutolinti; arba žalių rodyklių gretimoms žemėlapius.


METAR-TAF: